Time;durP1;ratioP1;P1;durP2;ratioP2;P2;SDS_P1;SDS_P2;PMS_P1;PMS_P2;Temp;Humidity;BMP_temperature;BMP_pressure;BME280_temperature;BME280_humidity;BME280_pressure;Samples;Min_cycle;Max_cycle;Signal;HPM_P1;HPM_P2
2022/09/09 00:00:33;;;;;;;1.00;1.00;;;25.70;57.40;;;;;;5050391;28;20049;-62
2022/09/09 00:03:12;;;;;;;1.75;1.25;;;25.70;57.40;;;;;;5049015;28;20049;-62
2022/09/09 00:05:51;;;;;;;1.67;1.52;;;25.60;57.30;;;;;;5050182;28;20083;-62
2022/09/09 00:08:22;;;;;;;0.75;0.75;;;25.70;57.40;;;;;;5049265;28;20127;-62
2022/09/09 00:10:58;;;;;;;1.50;1.25;;;25.60;57.30;;;;;;5049954;28;20041;-62
2022/09/09 00:13:45;;;;;;;1.05;1.05;;;25.70;57.30;;;;;;5049586;28;20047;-62
2022/09/09 00:16:23;;;;;;;1.42;1.10;;;25.70;57.40;;;;;;5049381;28;20056;-62
2022/09/09 00:19:05;;;;;;;1.85;1.15;;;25.70;57.30;;;;;;5049049;28;20133;-62
2022/09/09 00:21:47;;;;;;;1.15;1.02;;;25.70;57.30;;;;;;5046798;28;20136;-62
2022/09/09 00:24:35;;;;;;;0.90;0.90;;;25.60;57.20;;;;;;5049916;28;20409;-62
2022/09/09 00:27:28;;;;;;;1.33;0.98;;;25.60;57.20;;;;;;5047106;28;20067;-62
2022/09/09 00:30:14;;;;;;;0.95;0.95;;;25.70;57.30;;;;;;5049600;28;20048;-62
2022/09/09 00:32:41;;;;;;;0.85;0.85;;;25.70;57.30;;;;;;5049255;28;20041;-62
2022/09/09 00:35:35;;;;;;;2.13;1.00;;;25.70;57.30;;;;;;5049555;28;20057;-62
2022/09/09 00:38:15;;;;;;;1.30;1.00;;;25.60;57.20;;;;;;5048663;28;20056;-62
2022/09/09 00:40:53;;;;;;;;;;;25.60;57.20;;;;;;5049221;28;20072;-62
2022/09/09 00:43:32;;;;;;;0.93;0.93;;;25.70;57.30;;;;;;5047646;28;20227;-62
2022/09/09 00:46:23;;;;;;;1.10;1.00;;;25.60;57.20;;;;;;5048928;28;20059;-62
2022/09/09 00:49:23;;;;;;;0.75;0.75;;;25.60;57.20;;;;;;5049635;28;20297;-62
2022/09/09 00:52:27;;;;;;;0.93;0.93;;;25.60;57.20;;;;;;5043597;28;20139;-62
2022/09/09 00:55:26;;;;;;;1.67;0.98;;;25.60;57.20;;;;;;5047948;28;20122;-62
2022/09/09 00:57:55;;;;;;;0.95;0.95;;;25.60;57.20;;;;;;5046724;28;20124;-62
2022/09/09 01:00:35;;;;;;;1.00;1.00;;;25.60;57.20;;;;;;5048680;28;20053;-62
2022/09/09 01:03:33;;;;;;;1.15;0.90;;;25.60;57.20;;;;;;5048626;28;20060;-62
2022/09/09 01:06:19;;;;;;;1.00;0.90;;;25.60;57.20;;;;;;5047735;28;20139;-62
2022/09/09 01:09:04;;;;;;;1.00;1.00;;;25.60;57.20;;;;;;5048162;28;20043;-62
2022/09/09 01:11:51;;;;;;;1.35;1.00;;;25.60;57.20;;;;;;5047916;28;20422;-62
2022/09/09 01:14:44;;;;;;;0.85;0.85;;;25.60;57.20;;;;;;5048593;28;20071;-62
2022/09/09 01:17:30;;;;;;;1.15;0.85;;;25.60;57.20;;;;;;5048306;28;20060;-62
2022/09/09 01:20:17;;;;;;;0.65;0.65;;;25.60;57.20;;;;;;5048261;28;20413;-62
2022/09/09 01:23:16;;;;;;;0.70;0.70;;;25.60;57.30;;;;;;5043715;28;20334;-62
2022/09/09 01:26:07;;;;;;;1.25;0.80;;;25.60;57.30;;;;;;5049078;28;20053;-62
2022/09/09 01:28:36;;;;;;;0.90;0.90;;;25.60;57.40;;;;;;5047715;28;20045;-62
2022/09/09 01:31:07;;;;;;;1.00;1.00;;;25.60;57.50;;;;;;5048018;28;20124;-62
2022/09/09 01:33:34;;;;;;;0.90;0.90;;;25.60;57.60;;;;;;5048133;28;20085;-62
2022/09/09 01:36:21;;;;;;;1.08;0.98;;;25.60;57.60;;;;;;5048544;28;20468;-62
2022/09/09 01:38:48;;;;;;;1.05;0.95;;;25.60;57.70;;;;;;5047603;28;20059;-62
2022/09/09 01:41:15;;;;;;;1.15;1.05;;;25.60;57.80;;;;;;5047588;28;20513;-62
2022/09/09 01:43:43;;;;;;;1.05;1.05;;;25.60;57.90;;;;;;5046176;28;20052;-63
2022/09/09 01:46:12;;;;;;;0.85;0.85;;;25.60;57.90;;;;;;5046978;28;20052;-62
2022/09/09 01:48:40;;;;;;;1.15;0.98;;;25.60;58.00;;;;;;5047290;28;20512;-62
2022/09/09 01:51:10;;;;;;;1.23;1.13;;;25.60;58.00;;;;;;5047462;28;20529;-62
2022/09/09 01:53:39;;;;;;;0.85;0.80;;;25.60;57.90;;;;;;5045510;28;20045;-62
2022/09/09 01:56:35;;;;;;;1.15;0.70;;;25.50;57.80;;;;;;5044220;28;20053;-62
2022/09/09 01:59:28;;;;;;;1.00;1.00;;;25.60;57.90;;;;;;5045761;28;20056;-61
2022/09/09 02:02:25;;;;;;;1.00;0.93;;;25.60;57.80;;;;;;5047552;28;20049;-62
2022/09/09 02:05:01;;;;;;;1.38;0.90;;;25.60;57.80;;;;;;5045142;28;20053;-61
2022/09/09 02:07:46;;;;;;;0.70;0.70;;;25.60;57.70;;;;;;5046985;28;20293;-61
2022/09/09 02:10:22;;;;;;;0.80;0.80;;;25.60;57.70;;;;;;5049053;28;20051;-61
2022/09/09 02:12:56;;;;;;;0.95;0.95;;;25.60;57.60;;;;;;5050918;28;20418;-62
2022/09/09 02:15:55;;;;;;;1.27;1.17;;;25.60;57.60;;;;;;5050829;28;20135;-61
2022/09/09 02:18:29;;;;;;;0.90;0.90;;;25.60;57.50;;;;;;5050102;28;20049;-61
2022/09/09 02:20:58;;;;;;;0.80;0.80;;;25.60;57.50;;;;;;5050319;28;20052;-61
2022/09/09 02:23:26;;;;;;;0.75;0.75;;;25.60;57.40;;;;;;5048803;28;20063;-61
2022/09/09 02:25:55;;;;;;;0.65;0.65;;;25.60;57.40;;;;;;5044621;28;20060;-62
2022/09/09 02:28:26;;;;;;;0.80;0.80;;;25.60;57.40;;;;;;5048671;28;20049;-61
2022/09/09 02:30:54;;;;;;;0.68;0.68;;;25.60;57.30;;;;;;5050256;28;20063;-61
2022/09/09 02:33:26;;;;;;;0.80;0.80;;;25.60;57.30;;;;;;5050175;28;20048;-61
2022/09/09 02:35:56;;;;;;;1.65;0.80;;;25.60;57.30;;;;;;5049013;28;20045;-61
2022/09/09 02:38:28;;;;;;;0.77;0.77;;;25.60;57.30;;;;;;5049910;28;20060;-61
2022/09/09 02:40:55;;;;;;;1.95;0.60;;;25.60;57.20;;;;;;5005018;28;1299252;-62
2022/09/09 02:43:23;;;;;;;1.05;0.80;;;25.60;57.30;;;;;;5050042;28;20083;-61
2022/09/09 02:46:30;;;;;;;0.95;0.73;;;25.60;57.20;;;;;;5051123;28;20432;-61
2022/09/09 02:49:05;;;;;;;1.20;1.15;;;25.60;57.20;;;;;;5050172;28;20421;-61
2022/09/09 02:52:02;;;;;;;0.88;0.88;;;25.60;57.20;;;;;;5049890;28;20135;-61
2022/09/09 02:54:32;;;;;;;0.90;0.90;;;25.60;57.20;;;;;;5049915;28;20045;-61
2022/09/09 02:57:22;;;;;;;1.30;1.20;;;25.60;57.20;;;;;;5048319;28;20090;-62
2022/09/09 02:59:51;;;;;;;0.70;0.70;;;25.60;57.20;;;;;;5050415;28;20037;-61
2022/09/09 03:02:19;;;;;;;0.75;0.68;;;25.60;57.20;;;;;;5049327;28;20136;-61
2022/09/09 03:04:50;;;;;;;0.70;0.70;;;25.60;57.20;;;;;;5050737;28;20637;-61
2022/09/09 03:07:19;;;;;;;0.63;0.63;;;25.60;57.20;;;;;;5051560;28;20045;-61
2022/09/09 03:09:46;;;;;;;0.82;0.82;;;25.60;57.20;;;;;;5050363;28;20053;-61
2022/09/09 03:12:13;;;;;;;0.60;0.60;;;25.60;57.20;;;;;;5050349;28;20041;-61
2022/09/09 03:14:40;;;;;;;0.68;0.68;;;25.60;57.20;;;;;;5050152;28;20048;-61
2022/09/09 03:17:09;;;;;;;2.92;1.38;;;25.60;57.10;;;;;;5050669;28;20128;-62
2022/09/09 03:19:37;;;;;;;1.00;0.70;;;25.60;57.10;;;;;;5050526;28;20092;-61
2022/09/09 03:22:04;;;;;;;0.68;0.68;;;25.60;57.10;;;;;;5050623;28;20139;-61
2022/09/09 03:24:31;;;;;;;0.60;0.60;;;25.60;57.10;;;;;;5050605;28;20131;-61
2022/09/09 03:26:58;;;;;;;0.80;0.80;;;25.60;57.10;;;;;;5050442;28;20045;-64
2022/09/09 03:29:25;;;;;;;0.63;0.63;;;25.60;57.10;;;;;;5043481;28;20045;-61
2022/09/09 03:31:52;;;;;;;0.47;0.47;;;25.60;57.10;;;;;;5042039;28;20050;-61
2022/09/09 03:34:20;;;;;;;0.63;0.50;;;25.50;57.60;;;;;;5050080;28;20386;-62
2022/09/09 03:36:48;;;;;;;1.65;0.80;;;25.60;57.10;;;;;;5050560;28;20052;-61
2022/09/09 03:39:15;;;;;;;0.70;0.70;;;25.60;57.10;;;;;;5049267;28;20410;-61
2022/09/09 03:41:45;;;;;;;1.13;0.90;;;25.60;57.10;;;;;;5049727;28;20048;-61
2022/09/09 03:44:12;;;;;;;0.68;0.68;;;25.60;57.10;;;;;;5049239;28;20348;-61
2022/09/09 03:46:39;;;;;;;0.70;0.70;;;25.60;57.10;;;;;;5049739;28;20067;-61
2022/09/09 03:49:06;;;;;;;0.90;0.90;;;25.50;57.00;;;;;;5049268;28;20057;-62
2022/09/09 03:51:36;;;;;;;0.75;0.60;;;25.60;57.10;;;;;;5048439;28;20053;-61
2022/09/09 03:54:04;;;;;;;1.17;1.17;;;25.50;57.00;;;;;;5044633;28;20045;-64
2022/09/09 03:56:32;;;;;;;0.50;0.50;;;25.50;57.00;;;;;;5029946;28;20076;-62
2022/09/09 03:58:59;;;;;;;0.70;0.70;;;25.50;56.90;;;;;;5030092;28;20052;-61
2022/09/09 04:01:26;;;;;;;0.70;0.70;;;25.60;57.00;;;;;;5025281;28;20512;-61
2022/09/09 04:03:55;;;;;;;0.88;0.40;;;25.60;57.00;;;;;;5029978;28;20041;-61
2022/09/09 04:06:22;;;;;;;0.80;0.70;;;25.50;56.90;;;;;;5038723;28;20053;-62
2022/09/09 04:08:50;;;;;;;0.52;0.52;;;25.60;56.90;;;;;;5049843;28;20045;-61
2022/09/09 04:11:17;;;;;;;0.55;0.55;;;25.50;56.90;;;;;;5029853;28;20049;-61
2022/09/09 04:13:45;;;;;;;1.85;0.50;;;25.50;56.90;;;;;;5048725;28;20049;-61
2022/09/09 04:16:15;;;;;;;1.05;0.52;;;25.60;56.90;;;;;;5049370;28;20233;-61
2022/09/09 04:18:43;;;;;;;0.68;0.68;;;25.60;56.90;;;;;;5048431;28;20413;-61
2022/09/09 04:21:12;;;;;;;0.82;0.82;;;25.60;56.90;;;;;;5049130;28;20136;-62
2022/09/09 04:23:39;;;;;;;0.70;0.47;;;25.60;56.80;;;;;;5049164;28;20080;-61
2022/09/09 04:26:06;;;;;;;0.70;0.70;;;25.60;56.80;;;;;;5049827;28;20477;-61
2022/09/09 04:28:35;;;;;;;1.25;0.50;;;25.60;56.80;;;;;;5049634;28;20049;-61
2022/09/09 04:31:14;;;;;;;1.23;0.70;;;25.60;56.80;;;;;;5039104;28;20095;-61
2022/09/09 04:33:41;;;;;;;0.70;0.70;;;25.60;56.70;;;;;;5029025;28;20136;-61
2022/09/09 04:36:08;;;;;;;0.70;0.70;;;25.60;56.70;;;;;;5037354;28;20052;-61
2022/09/09 04:38:36;;;;;;;0.60;0.60;;;25.60;56.60;;;;;;5036723;28;20055;-61
2022/09/09 04:41:04;;;;;;;0.50;0.50;;;25.60;56.60;;;;;;5035381;28;20081;-61
2022/09/09 04:43:31;;;;;;;0.80;0.80;;;25.60;56.60;;;;;;5038377;28;20044;-61
2022/09/09 04:46:01;;;;;;;0.60;0.60;;;25.60;56.60;;;;;;5044322;28;20060;-61
2022/09/09 04:48:28;;;;;;;0.75;0.60;;;25.60;56.60;;;;;;5037753;28;20049;-61
2022/09/09 04:50:59;;;;;;;0.70;0.70;;;25.60;56.60;;;;;;5049106;28;20052;-61
2022/09/09 04:53:27;;;;;;;0.45;0.40;;;25.60;57.20;;;;;;5048730;28;20049;-61
2022/09/09 04:56:02;;;;;;;0.47;0.47;;;25.60;56.60;;;;;;5047864;28;20229;-61
2022/09/09 04:58:30;;;;;;;0.57;0.57;;;25.60;56.60;;;;;;5049353;28;20040;-61
2022/09/09 05:01:09;;;;;;;0.50;0.50;;;25.60;56.60;;;;;;5049386;28;20055;-61
2022/09/09 05:03:37;;;;;;;0.95;0.80;;;25.50;56.50;;;;;;5048552;28;20258;-62
2022/09/09 05:06:11;;;;;;;1.20;1.10;;;25.60;56.60;;;;;;5043471;28;20052;-61
2022/09/09 05:08:39;;;;;;;0.60;0.60;;;25.60;56.60;;;;;;5047656;28;20045;-61
2022/09/09 05:11:18;;;;;;;0.55;0.47;;;25.50;56.50;;;;;;5044643;28;20207;-61
2022/09/09 05:13:46;;;;;;;0.60;0.60;;;25.50;56.50;;;;;;5028790;28;20129;-61
2022/09/09 05:16:14;;;;;;;0.60;0.60;;;25.40;56.70;;;;;;5030043;28;20222;-59
2022/09/09 05:18:42;;;;;;;1.15;1.05;;;25.20;56.90;;;;;;5028820;28;20535;-59
2022/09/09 05:21:10;;;;;;;1.42;1.00;;;25.00;56.70;;;;;;5042827;28;20076;-60
2022/09/09 05:23:38;;;;;;;0.80;0.80;;;24.70;56.00;;;;;;5035091;28;20045;-60
2022/09/09 05:26:08;;;;;;;1.70;1.25;;;24.40;55.20;;;;;;5037999;28;20045;-60
2022/09/09 05:28:35;;;;;;;2.78;1.17;;;24.10;54.40;;;;;;5044391;28;20051;-60
2022/09/09 05:31:07;;;;;;;2.63;1.00;;;23.80;53.50;;;;;;5039641;28;20213;-61
2022/09/09 05:33:36;;;;;;;1.70;1.08;;;23.50;53.30;;;;;;5040541;28;20051;-60
2022/09/09 05:36:07;;;;;;;4.25;1.20;;;23.10;52.80;;;;;;5041865;28;20075;-61
2022/09/09 05:38:35;;;;;;;3.03;1.00;;;22.80;52.80;;;;;;5035482;28;20060;-61
2022/09/09 05:41:03;;;;;;;1.98;0.90;;;22.40;52.60;;;;;;5035224;28;20053;-62
2022/09/09 05:43:32;;;;;;;3.03;1.30;;;22.10;53.00;;;;;;5037175;28;20049;-60
2022/09/09 05:46:02;;;;;;;3.90;1.30;;;21.80;53.50;;;;;;5034580;28;20056;-60
2022/09/09 05:48:31;;;;;;;8.02;1.67;;;21.50;53.70;;;;;;5036453;28;20044;-60
2022/09/09 05:51:00;;;;;;;3.13;1.15;;;21.20;54.80;;;;;;5035057;28;20057;-60
2022/09/09 05:53:27;;;;;;;7.75;1.33;;;21.00;56.00;;;;;;5037266;28;20049;-60
2022/09/09 05:56:05;;;;;;;4.13;1.30;;;20.90;55.50;;;;;;5035060;28;20060;-60
2022/09/09 05:58:34;;;;;;;1.38;1.20;;;20.70;55.40;;;;;;5036914;28;20059;-60
2022/09/09 06:01:19;;;;;;;2.88;1.65;;;20.50;55.30;;;;;;5038306;28;20123;-60
2022/09/09 06:03:48;;;;;;;1.38;1.30;;;20.30;56.10;;;;;;5034587;28;20473;-61
2022/09/09 06:06:22;;;;;;;2.05;1.00;;;20.20;56.20;;;;;;5032175;28;20591;-63
2022/09/09 06:08:56;;;;;;;1.98;1.25;;;20.00;56.40;;;;;;5036258;28;20045;-61
2022/09/09 06:11:30;;;;;;;6.85;1.60;;;19.90;57.80;;;;;;5036267;28;20049;-61
2022/09/09 06:13:59;;;;;;;4.25;1.83;;;19.70;57.20;;;;;;5039327;28;20052;-62
2022/09/09 06:16:28;;;;;;;4.95;2.08;;;19.60;57.30;;;;;;5038003;28;20088;-63
2022/09/09 06:18:57;;;;;;;4.35;1.92;;;19.50;57.70;;;;;;5042488;28;20448;-61
2022/09/09 06:21:27;;;;;;;8.70;2.10;;;19.40;58.00;;;;;;5039550;28;20111;-61
2022/09/09 06:23:55;;;;;;;3.78;1.55;;;19.30;57.60;;;;;;5036882;28;20519;-61
2022/09/09 06:26:33;;;;;;;4.90;2.35;;;19.20;58.40;;;;;;5039570;28;20475;-63
2022/09/09 06:29:03;;;;;;;3.90;1.52;;;19.20;58.90;;;;;;5039707;28;20072;-60
2022/09/09 06:31:33;;;;;;;6.05;1.45;;;19.20;58.10;;;;;;5036794;28;20053;-61
2022/09/09 06:34:03;;;;;;;2.40;1.42;;;19.10;58.90;;;;;;5037530;28;20453;-61
2022/09/09 06:36:33;;;;;;;4.78;1.23;;;19.10;59.40;;;;;;5036777;28;20511;-62
2022/09/09 06:39:01;;;;;;;3.55;1.60;;;19.10;58.60;;;;;;5038979;28;20450;-62
2022/09/09 06:41:31;;;;;;;5.63;1.70;;;19.00;58.20;;;;;;5034343;28;20052;-61
2022/09/09 06:43:58;;;;;;;1.60;1.37;;;18.90;58.30;;;;;;5036895;28;20044;-60
2022/09/09 06:46:27;;;;;;;3.83;1.50;;;18.90;58.40;;;;;;5037115;28;20404;-61
2022/09/09 06:48:57;;;;;;;4.50;1.30;;;18.80;57.70;;;;;;5041915;28;20052;-61
2022/09/09 06:51:27;;;;;;;1.02;1.00;;;18.80;58.80;;;;;;5038747;28;20045;-61
2022/09/09 06:53:57;;;;;;;1.88;1.00;;;18.70;58.80;;;;;;5040358;28;20561;-64
2022/09/09 06:56:30;;;;;;;6.97;1.40;;;18.70;57.90;;;;;;5040406;28;20490;-61
2022/09/09 06:59:03;;;;;;;2.88;1.10;;;18.60;58.50;;;;;;5042272;28;20041;-62
2022/09/09 07:01:33;;;;;;;1.85;1.00;;;18.60;59.40;;;;;;5039853;28;20098;-61
2022/09/09 07:04:03;;;;;;;0.95;0.80;;;18.50;59.60;;;;;;5040203;28;20123;-61
2022/09/09 07:06:34;;;;;;;1.35;1.20;;;18.60;58.10;;;;;;5041495;28;20053;-59
2022/09/09 07:09:03;;;;;;;;;;;18.50;59.90;;;;;;5046440;28;20045;-61
2022/09/09 07:11:33;;;;;;;2.30;1.30;;;18.60;59.20;;;;;;5038988;28;20423;-60
2022/09/09 07:14:01;;;;;;;1.43;0.90;;;18.60;58.50;;;;;;5041703;28;20079;-61
2022/09/09 07:16:29;;;;;;;0.98;0.90;;;18.60;58.70;;;;;;5037292;28;20067;-60
2022/09/09 07:18:57;;;;;;;1.35;1.25;;;18.60;58.80;;;;;;5036096;28;20052;-60
2022/09/09 07:21:26;;;;;;;1.00;0.95;;;18.60;58.20;;;;;;5040403;28;20103;-60
2022/09/09 07:23:54;;;;;;;1.38;1.10;;;18.60;58.30;;;;;;5040689;28;20608;-61
2022/09/09 07:26:23;;;;;;;0.90;0.90;;;18.60;59.30;;;;;;5039852;28;20481;-61
2022/09/09 07:28:51;;;;;;;3.67;0.90;;;18.70;59.10;;;;;;5038261;28;20041;-61
2022/09/09 07:31:21;;;;;;;1.95;0.80;;;18.60;59.20;;;;;;5036030;28;20057;-61
2022/09/09 07:33:49;;;;;;;0.63;0.60;;;18.60;59.20;;;;;;5040990;28;20045;-61
2022/09/09 07:36:25;;;;;;;1.77;0.93;;;18.60;58.70;;;;;;5041113;28;20056;-62
2022/09/09 07:39:04;;;;;;;1.15;1.05;;;18.60;58.70;;;;;;5040403;28;20144;-60
2022/09/09 07:41:40;;;;;;;1.60;0.82;;;18.50;58.60;;;;;;5041783;28;20055;-62
2022/09/09 07:44:10;;;;;;;3.33;0.80;;;18.50;59.00;;;;;;5034402;28;20053;-62
2022/09/09 07:46:39;;;;;;;2.90;0.82;;;18.40;58.80;;;;;;5039610;28;20056;-63
2022/09/09 07:49:08;;;;;;;1.33;0.98;;;18.40;58.90;;;;;;5038489;28;20037;-63
2022/09/09 07:51:38;;;;;;;5.38;0.90;;;18.40;59.20;;;;;;5036587;28;20044;-62
2022/09/09 07:54:09;;;;;;;0.90;0.77;;;18.40;59.00;;;;;;5044663;28;20045;-64
2022/09/09 07:56:37;;;;;;;2.20;0.55;;;18.40;59.60;;;;;;5037940;28;20041;-62
2022/09/09 07:59:07;;;;;;;0.68;0.68;;;18.40;59.60;;;;;;5036545;28;20052;-63
2022/09/09 08:01:40;;;;;;;0.93;0.70;;;18.50;60.30;;;;;;5039228;28;20060;-63
2022/09/09 08:04:14;;;;;;;0.80;0.47;;;18.40;60.40;;;;;;5038290;28;20075;-66
2022/09/09 08:06:49;;;;;;;0.90;0.70;;;18.50;60.30;;;;;;5036439;28;20080;-62
2022/09/09 08:09:17;;;;;;;0.75;0.50;;;18.50;60.10;;;;;;5034635;28;20049;-61
2022/09/09 08:11:44;;;;;;;8.85;0.80;;;18.60;60.00;;;;;;5038728;28;20091;-62
2022/09/09 08:14:13;;;;;;;0.95;0.47;;;18.60;60.20;;;;;;5039937;28;20060;-60
2022/09/09 08:16:44;;;;;;;3.67;0.60;;;18.60;59.50;;;;;;5038442;28;20067;-61
2022/09/09 08:19:11;;;;;;;0.32;0.32;;;18.60;59.70;;;;;;5044071;28;20080;-60
2022/09/09 08:21:40;;;;;;;4.22;1.23;;;18.60;59.50;;;;;;5037628;28;20528;-60
2022/09/09 08:24:10;;;;;;;1.88;0.50;;;18.60;59.60;;;;;;5035848;28;20410;-61
2022/09/09 08:26:41;;;;;;;1.30;1.00;;;18.60;59.50;;;;;;5037173;28;20416;-62
2022/09/09 08:29:10;;;;;;;0.90;0.70;;;18.60;59.70;;;;;;5037058;28;20099;-62
2022/09/09 08:31:40;;;;;;;0.52;0.52;;;18.60;60.20;;;;;;5037353;28;20132;-62
2022/09/09 08:34:09;;;;;;;1.33;0.50;;;18.70;60.10;;;;;;5037151;28;20060;-60
2022/09/09 08:36:38;;;;;;;0.85;0.55;;;18.70;59.70;;;;;;5040079;28;20067;-59
2022/09/09 08:39:07;;;;;;;2.05;0.68;;;18.80;59.40;;;;;;5042040;28;20144;-59
2022/09/09 08:42:13;;;;;;;3.95;0.60;;;18.80;59.70;;;;;;5040482;28;20608;-60
2022/09/09 08:45:19;;;;;;;1.05;0.52;;;18.80;59.10;;;;;;5037489;28;20045;-60
2022/09/09 08:48:25;;;;;;;0.50;0.50;;;18.90;59.40;;;;;;5039056;28;20436;-60
2022/09/09 08:50:52;;;;;;;0.45;0.45;;;18.90;59.30;;;;;;5039971;28;20071;-62
2022/09/09 08:53:33;;;;;;;2.50;0.52;;;18.90;59.60;;;;;;5034608;28;20057;-61
2022/09/09 08:56:03;;;;;;;1.10;1.00;;;19.00;59.50;;;;;;5030867;28;20060;-63
2022/09/09 08:58:33;;;;;;;3.60;0.63;;;19.00;59.30;;;;;;5037815;28;20049;-61
2022/09/09 09:01:37;;;;;;;1.20;0.60;;;19.00;59.10;;;;;;5039028;28;20076;-62
2022/09/09 09:04:44;;;;;;;1.35;0.60;;;19.00;59.40;;;;;;5029202;28;20053;-62
2022/09/09 09:07:43;;;;;;;1.45;0.50;;;19.10;59.30;;;;;;5036573;28;20052;-63
2022/09/09 09:10:43;;;;;;;1.33;0.60;;;19.00;59.20;;;;;;5033661;28;20053;-62
2022/09/09 09:13:26;;;;;;;1.85;0.70;;;19.10;59.60;;;;;;5040485;28;20049;-62
2022/09/09 09:16:06;;;;;;;2.40;0.70;;;19.10;59.40;;;;;;5034930;28;20085;-60
2022/09/09 09:18:33;;;;;;;1.23;1.10;;;19.10;59.30;;;;;;5037879;28;20033;-61
2022/09/09 09:21:18;;;;;;;2.80;0.88;;;19.20;59.90;;;;;;5034739;28;20067;-64
2022/09/09 09:23:55;;;;;;;1.45;0.68;;;19.20;59.70;;;;;;5033338;28;20083;-60
2022/09/09 09:26:35;;;;;;;2.70;0.65;;;19.20;60.10;;;;;;5028956;28;20063;-62
2022/09/09 09:29:10;;;;;;;1.50;0.60;;;19.30;60.10;;;;;;5030737;28;20060;-61
2022/09/09 09:31:38;;;;;;;0.77;0.45;;;19.30;59.50;;;;;;5036299;28;20477;-61
2022/09/09 09:34:07;;;;;;;1.20;0.80;;;19.30;59.10;;;;;;5033472;28;20049;-62
2022/09/09 09:36:46;;;;;;;3.85;0.60;;;19.40;59.60;;;;;;5040564;28;20492;-60
2022/09/09 09:39:36;;;;;;;3.92;0.63;;;19.40;60.00;;;;;;5036290;28;20124;-61
2022/09/09 09:42:24;;;;;;;3.08;0.70;;;19.40;59.10;;;;;;5037057;28;20053;-59
2022/09/09 09:44:52;;;;;;;1.13;0.93;;;19.40;58.90;;;;;;5039093;28;20049;-62
2022/09/09 09:47:23;;;;;;;2.72;0.60;;;19.40;58.40;;;;;;5035662;28;20144;-59
2022/09/09 09:49:59;;;;;;;1.50;0.40;;;19.40;58.30;;;;;;5040433;28;20106;-60
2022/09/09 09:52:30;;;;;;;0.50;0.50;;;19.50;58.10;;;;;;5033848;28;20060;-61
2022/09/09 09:55:01;;;;;;;3.53;0.47;;;19.40;58.00;;;;;;5034311;28;20098;-62
2022/09/09 09:57:34;;;;;;;2.25;0.50;;;19.40;57.80;;;;;;5037337;28;20507;-62
2022/09/09 10:00:20;;;;;;;1.15;0.50;;;19.50;58.10;;;;;;5035769;28;20055;-61
2022/09/09 10:02:51;;;;;;;0.35;0.32;;;19.50;57.90;;;;;;5038345;28;20053;-61
2022/09/09 10:05:23;;;;;;;1.00;0.63;;;19.50;58.00;;;;;;5039205;28;20045;-60
2022/09/09 10:08:12;;;;;;;3.33;0.70;;;19.50;58.00;;;;;;5041301;28;20124;-59
2022/09/09 10:11:10;;;;;;;4.93;0.50;;;19.50;57.60;;;;;;5038842;28;20127;-61
2022/09/09 10:14:05;;;;;;;0.80;0.50;;;19.50;57.50;;;;;;5039502;28;20041;-61
2022/09/09 10:16:56;;;;;;;1.52;0.60;;;19.60;57.10;;;;;;5035949;28;22862;-63
2022/09/09 10:19:32;;;;;;;0.63;0.63;;;19.60;56.80;;;;;;5040197;28;20043;-60
2022/09/09 10:22:19;;;;;;;0.93;0.85;;;19.50;56.80;;;;;;5039279;28;20123;-61
2022/09/09 10:25:15;;;;;;;1.60;0.57;;;19.60;56.70;;;;;;5034781;28;20147;-61
2022/09/09 10:28:23;;;;;;;2.63;0.43;;;19.60;56.60;;;;;;5029609;28;20133;-61
2022/09/09 10:31:19;;;;;;;1.80;0.93;;;19.50;56.80;;;;;;5035892;28;20504;-61
2022/09/09 10:34:02;;;;;;;0.95;0.40;;;19.50;56.60;;;;;;5041351;28;20048;-61
2022/09/09 10:36:30;;;;;;;2.58;0.60;;;19.60;56.60;;;;;;5041696;28;20049;-58
2022/09/09 10:39:16;;;;;;;1.42;0.60;;;19.60;56.90;;;;;;5039406;28;20390;-61
2022/09/09 10:42:12;;;;;;;1.95;0.50;;;19.60;57.00;;;;;;5039222;28;20059;-61
2022/09/09 10:45:17;;;;;;;1.17;0.60;;;19.60;56.50;;;;;;5042331;28;20049;-61
2022/09/09 10:48:10;;;;;;;1.77;0.68;;;19.70;56.40;;;;;;5037337;28;20099;-61
2022/09/09 10:51:03;;;;;;;1.20;0.43;;;19.60;56.90;;;;;;5036864;28;20564;-60
2022/09/09 10:54:01;;;;;;;3.75;0.43;;;19.70;57.00;;;;;;5036553;28;20053;-61
2022/09/09 10:56:30;;;;;;;1.20;0.80;;;19.70;57.30;;;;;;5036260;28;20065;-61
2022/09/09 10:59:14;;;;;;;0.40;0.40;;;19.70;57.60;;;;;;5034254;28;20049;-61
2022/09/09 11:01:59;;;;;;;3.28;0.50;;;19.70;57.40;;;;;;5038888;28;20389;-61
2022/09/09 11:04:33;;;;;;;1.98;0.40;;;19.70;58.00;;;;;;5037823;28;20074;-61
2022/09/09 11:07:08;;;;;;;2.15;0.60;;;19.70;58.10;;;;;;5038372;28;20060;-60
2022/09/09 11:09:52;;;;;;;0.68;0.60;;;19.70;58.30;;;;;;5041707;28;20044;-60
2022/09/09 11:12:23;;;;;;;4.53;0.50;;;19.70;57.10;;;;;;5038373;28;20055;-60
2022/09/09 11:14:59;;;;;;;0.47;0.47;;;19.70;57.30;;;;;;5041234;28;20607;-60
2022/09/09 11:17:40;;;;;;;2.38;0.40;;;19.70;57.40;;;;;;5043839;28;20091;-63
2022/09/09 11:20:12;;;;;;;1.35;0.65;;;19.70;57.60;;;;;;5047567;28;20049;-63
2022/09/09 11:22:48;;;;;;;0.43;0.43;;;19.70;57.30;;;;;;5043909;28;20389;-62
2022/09/09 11:25:22;;;;;;;2.55;0.70;;;19.80;57.20;;;;;;5040062;28;20115;-60
2022/09/09 11:28:22;;;;;;;6.45;0.82;;;19.80;56.90;;;;;;5045035;28;20055;-61
2022/09/09 11:31:25;;;;;;;0.43;0.43;;;19.80;57.00;;;;;;5043260;28;20041;-61
2022/09/09 11:34:33;;;;;;;0.50;0.50;;;19.90;56.10;;;;;;5039311;28;20041;-62
2022/09/09 11:37:17;;;;;;;3.55;0.68;;;19.90;55.70;;;;;;5039557;28;20490;-62
2022/09/09 11:40:04;;;;;;;0.60;0.60;;;19.90;55.70;;;;;;5040199;28;20045;-62
2022/09/09 11:42:32;;;;;;;1.05;0.70;;;19.80;55.60;;;;;;5038681;28;20049;-61
2022/09/09 11:45:20;;;;;;;0.60;0.60;;;19.80;56.10;;;;;;5046182;28;20063;-62
2022/09/09 11:47:58;;;;;;;0.40;0.40;;;19.80;56.10;;;;;;5046089;28;20063;-60
2022/09/09 11:50:32;;;;;;;3.92;0.50;;;19.80;56.10;;;;;;5045970;28;20136;-60
2022/09/09 11:53:22;;;;;;;1.55;0.30;;;19.90;55.90;;;;;;5038090;28;20060;-66
2022/09/09 11:56:10;;;;;;;0.55;0.40;;;19.90;55.50;;;;;;5042888;28;20478;-60
2022/09/09 11:58:45;;;;;;;0.70;0.63;;;19.90;55.40;;;;;;5043452;28;20049;-60
2022/09/09 12:01:15;;;;;;;0.40;0.40;;;20.00;56.10;;;;;;5034331;28;20073;-62
2022/09/09 12:03:50;;;;;;;0.93;0.50;;;20.00;56.00;;;;;;5049236;28;20041;-61
2022/09/09 12:06:32;;;;;;;1.27;0.52;;;20.00;56.10;;;;;;5050533;28;20090;-61
2022/09/09 12:09:10;;;;;;;7.72;1.65;;;20.00;56.20;;;;;;5040250;28;20057;-61
2022/09/09 12:11:37;;;;;;;0.47;0.40;;;20.10;56.60;;;;;;5028894;28;20089;-60
2022/09/09 12:14:18;;;;;;;4.25;0.50;;;20.20;58.00;;;;;;5024867;28;20144;-59
2022/09/09 12:16:45;;;;;;;3.28;0.70;;;20.70;57.50;;;;;;5029740;28;20041;-60
2022/09/09 12:19:21;;;;;;;3.45;0.50;;;21.40;56.20;;;;;;5028841;28;20053;-60
2022/09/09 12:22:21;;;;;;;1.88;0.50;;;22.00;54.70;;;;;;5040707;28;20129;-60
2022/09/09 12:25:13;;;;;;;2.20;0.60;;;22.70;53.00;;;;;;5045209;28;20048;-60
2022/09/09 12:27:47;;;;;;;2.08;0.40;;;23.20;52.10;;;;;;5039927;28;20289;-61
2022/09/09 12:30:15;;;;;;;0.90;0.50;;;23.70;51.40;;;;;;5046745;28;20055;-60
2022/09/09 12:32:44;;;;;;;1.20;0.60;;;24.10;51.00;;;;;;5042167;28;20049;-60
2022/09/09 12:35:21;;;;;;;7.13;0.30;;;24.40;50.20;;;;;;5042777;28;20040;-60
2022/09/09 12:37:57;;;;;;;0.30;0.30;;;24.60;50.30;;;;;;5038158;28;20042;-60
2022/09/09 12:40:28;;;;;;;7.88;0.47;;;24.90;49.50;;;;;;5048439;28;20045;-60
2022/09/09 12:42:55;;;;;;;;;;;25.10;48.00;;;;;;5047801;28;20059;-60
2022/09/09 12:45:25;;;;;;;0.32;0.30;;;25.30;47.40;;;;;;5028093;28;19921;-59
2022/09/09 12:48:01;;;;;;;0.57;0.40;;;25.50;47.40;;;;;;5025350;28;20052;-59
2022/09/09 12:58:16;;;;;;;0.40;0.40;;;26.00;46.70;;;;;;5041546;28;20147;-59
2022/09/09 13:00:52;;;;;;;0.60;0.40;;;26.10;51.20;;;;;;5036161;28;20051;-59
2022/09/09 13:03:21;;;;;;;0.32;0.20;;;25.90;50.40;;;;;;5047012;28;20053;-59
2022/09/09 13:05:49;;;;;;;1.88;0.40;;;25.40;48.50;;;;;;5038857;28;20072;-59
2022/09/09 13:16:35;;;;;;;0.68;0.30;;;23.70;48.60;;;;;;5043102;28;20051;-61
2022/09/09 13:19:14;;;;;;;0.35;0.30;;;23.10;48.60;;;;;;5043547;28;20067;-59
2022/09/09 13:21:42;;;;;;;0.65;0.60;;;22.70;49.10;;;;;;5038053;28;20231;-60
2022/09/09 13:24:32;;;;;;;0.32;0.32;;;22.30;49.70;;;;;;5047906;28;20350;-60
2022/09/09 13:27:03;;;;;;;0.50;0.50;;;21.90;49.80;;;;;;5024852;28;20052;-60
2022/09/09 13:29:32;;;;;;;0.80;0.40;;;21.60;50.40;;;;;;5046781;28;20045;-60
2022/09/09 13:32:19;;;;;;;0.25;0.25;;;21.30;51.00;;;;;;5047434;28;20111;-60
2022/09/09 13:35:01;;;;;;;0.47;0.40;;;21.00;51.30;;;;;;5028157;28;20054;-60
2022/09/09 13:37:35;;;;;;;0.57;0.57;;;20.80;51.90;;;;;;5027750;28;20089;-60
2022/09/09 13:40:05;;;;;;;0.40;0.40;;;20.60;53.10;;;;;;5027621;28;20042;-60
2022/09/09 13:42:40;;;;;;;1.20;0.30;;;20.50;53.30;;;;;;5010611;28;20052;-60
2022/09/09 13:45:20;;;;;;;0.30;0.30;;;20.40;53.90;;;;;;5027846;28;20455;-60
2022/09/09 13:47:52;;;;;;;0.30;0.30;;;20.30;54.60;;;;;;5028368;28;20053;-60